N Moorhead
4/1/18 12:00 AM : 1 Month
Date & Time Temp - F High Temp - F Low Temp - F Hum - % Dew Point - F Wind Speed - mph Wind Direction Wind Run - mi High Wind Speed - mph High Wind Direction Wind Chill - F Heat Index - F Barometer - in Hg Rain - in Rain Rate - in Heating Degree Days Cooling Degree Days
4/1/18 0:00 10.2 10.3 9.9 72 3 7 W 3.5 14 WSW -0.8 10 30.311 0 0 1.142 0
4/1/18 0:30 10.7 10.7 10.2 71 3.1 8 W 4 17 WNW -1.1 10.5 30.307 0 0 1.131 0
4/1/18 1:00 10.3 10.6 10.2 71 2.8 7 W 3.5 15 WNW -0.7 10.1 30.303 0 0 1.14 0
4/1/18 1:30 9.6 10.3 9.6 71 2.1 7 WNW 3.5 15 WNW -1.5 9.4 30.299 0 0 1.154 0
4/1/18 2:00 9.4 9.8 9.4 71 1.9 7 WNW 3.5 14 WNW -1.7 9.2 30.296 0 0 1.158 0
4/1/18 2:30 9.4 9.5 9.2 71 1.9 7 WNW 3.5 16 W -1.7 9.2 30.289 0 0 1.158 0
4/1/18 3:00 9.4 9.5 9.4 72 2.2 7 W 3.5 14 W -1.7 9.2 30.282 0 0 1.158 0
4/1/18 3:30 9.8 9.8 9.3 71 2.3 7 W 3.5 15 W -1.3 9.6 30.277 0 0 1.15 0
4/1/18 4:00 9.8 9.9 9.7 71 2.3 7 W 3.5 16 W -1.3 9.6 30.27 0 0 1.15 0
4/1/18 4:30 10.2 10.8 9.7 69 2 7 W 3.5 16 WSW -0.8 10 30.354 0 0 1.142 0
4/1/18 5:00 10.1 10.3 10.1 69 1.9 9 WNW 4.5 18 WSW -2.7 9.9 30.33 0 0 1.144 0
4/1/18 5:30 9.2 10.1 9.2 69 1.1 8 W 4 17 WNW -2.9 9 30.332 0 0 1.163 0
4/1/18 6:00 8.7 9.3 8.7 70 0.9 7 W 3.5 16 W -2.6 8.5 30.33 0 0 1.173 0
4/1/18 6:30 8.8 8.9 8.5 70 1 6 W 3 15 W -1.4 8.6 30.326 0 0 1.171 0
4/1/18 7:00 9 9 8.7 69 0.9 6 W 3 15 WSW -1.2 8.8 30.325 0 0 1.167 0
4/1/18 7:30 9.4 9.4 8.9 68 1 7 W 3.5 15 W -1.7 9.2 30.324 0 0 1.158 0
4/1/18 8:00 9.8 9.9 9.4 67 1 7 W 3.5 18 W -1.3 9.6 30.322 0 0 1.15 0
4/1/18 8:30 10.7 10.7 9.8 66 1.6 8 W 4 17 WSW -1.1 10.4 30.323 0 0 1.131 0
4/1/18 9:00 11.7 11.8 10.7 64 1.9 8 W 4 17 W 0.1 11.4 30.22 0 0 1.11 0
4/1/18 9:30 13.1 13.1 11.6 62 2.5 9 W 4.5 17 W 1 12.8 30.19 0 0 1.081 0
4/1/18 10:00 14.4 14.4 13.1 60 3 9 W 4.5 17 W 2.6 14.1 30.187 0 0 1.054 0
4/1/18 10:30 15.6 15.6 14.4 60 4.2 10 W 5 23 WSW 3.4 15.2 30.184 0 0 1.029 0
4/1/18 11:00 16.8 17.2 15.6 57 4.2 10 W 5 24 W 4.9 16.4 30.188 0 0 1.004 0
4/1/18 11:30 18.3 18.3 16.6 58 6 9 W 4.5 21 WSW 7.4 17.9 30.19 0 0 0.973 0
4/1/18 12:00 20.3 20.6 18.4 54 6.3 10 W 5 23 WSW 9.2 19.8 30.187 0 0 0.931 0
4/1/18 12:30 22.6 22.6 20.1 55 8.8 9 W 4.5 22 W 12.7 22 30.175 0 0 0.883 0
4/1/18 13:00 22.6 22.9 22.2 54 8.4 8 WSW 4 17 WSW 13.4 22 30.167 0 0 0.883 0
4/1/18 13:30 24.4 24.4 22.5 54 10.1 8 W 4 18 WSW 15.6 23.8 30.158 0 0 0.846 0
4/1/18 14:00 24.9 25.3 24 53 10.2 8 W 4 16 W 16.2 24.3 30.143 0 0 0.835 0
4/1/18 14:30 25.3 25.5 24.6 54 11 9 WSW 4.5 19 WSW 16 24.7 30.13 0 0 0.827 0
4/1/18 15:00 25.8 26.1 25.3 51 10.1 8 WSW 4 18 W 17.3 25.1 30.119 0 0 0.817 0
4/1/18 15:30 26.1 26.2 25.4 54 11.7 10 WSW 5 20 WSW 16.4 25.5 30.106 0 0 0.81 0
4/1/18 16:00 26.3 26.3 25.6 55 12.3 8 WSW 4 18 W 17.9 25.7 30.093 0 0 0.806 0
4/1/18 16:30 26.1 27 25.9 51 10.4 8 WSW 4 19 W 17.7 25.4 30.085 0 0 0.81 0
4/1/18 17:00 26.1 26.3 25.8 53 11.3 9 WSW 4.5 21 W 17 25.5 30.072 0 0 0.81 0
4/1/18 17:30 25.8 26.3 25.7 52 10.6 9 WSW 4.5 21 W 16.6 25.1 30.069 0 0 0.817 0
4/1/18 18:00 25.7 26.3 25.6 51 10 8 WSW 4 18 W 17.2 25 30.054 0 0 0.819 0
4/1/18 18:30 24.9 25.7 24.9 51 9.3 7 WSW 3.5 17 W 16.9 24.2 30.043 0 0 0.835 0
4/1/18 19:00 24.5 25 24.4 53 9.8 6 WSW 3 15 W 17.3 23.9 30.037 0 0 0.844 0
4/1/18 19:30 23.5 24.4 23.5 53 8.9 5 WSW 2.5 14 WSW 17.1 22.9 30.023 0 0 0.865 0
4/1/18 20:00 22.3 23.4 22.3 56 9 3 WSW 1.5 14 WSW 18.3 21.8 30.017 0 0 0.89 0
4/1/18 20:30 21.2 22.3 21.2 59 9.1 1 SW 0.5 6 W 21.2 20.7 30.016 0 0 0.912 0
4/1/18 21:00 19.8 21.2 19.8 62 8.9 0 -- 0 2 WSW 19.8 19.4 30.01 0 0 0.942 0
4/1/18 21:30 18.1 19.8 17.9 66 8.6 0 -- 0 1 WSW 18.1 17.7 30.011 0 0 0.977 0
4/1/18 22:00 17.8 18.6 17.8 65 8 0 -- 0 3 WSW 17.8 17.4 30.001 0 0 0.983 0
4/1/18 22:30 15.9 17.8 15.9 70 7.8 0 -- 0 5 SSE 15.9 15.6 29.999 0 0 1.023 0
4/1/18 23:00 15.6 16.2 15.4 71 7.9 0 -- 0 0 -- 15.6 15.3 29.989 0 0 1.029 0
4/1/18 23:30 15.8 15.8 15.5 71 8.1 0 -- 0 1 SSE 15.8 15.5 29.979 0 0 1.025 0
4/2/18 0:00 15.1 16.3 15.1 72 7.7 0 -- 0 0 -- 15.1 14.8 29.976 0 0 1.04 0
4/2/18 0:30 14 15.1 13.9 74 7.2 0 -- 0 1 SSE 14 13.8 29.972 0 0 1.062 0
4/2/18 1:00 14.7 15.2 13.9 74 7.9 1 S 0.5 4 SSE 14.7 14.5 29.974 0 0 1.048 0
4/2/18 1:30 14.9 15.1 14.7 74 8.1 1 S 0.5 5 S 14.9 14.7 29.97 0 0 1.044 0
4/2/18 2:00 13.7 14.9 13.5 76 7.5 1 S 0.5 3 S 13.7 13.5 29.976 0 0 1.069 0
4/2/18 2:30 13.9 14 13.1 75 7.4 1 S 0.5 4 S 13.9 13.7 29.975 0 0 1.065 0
4/2/18 3:00 12.9 14 12.8 77 7 0 -- 0 0 -- 12.9 12.7 29.971 0 0 1.085 0
4/2/18 3:30 12.8 12.9 12.4 78 7.2 0 -- 0 2 SSE 12.8 12.6 29.959 0 0 1.087 0
4/2/18 4:00 12.1 12.8 12 78 6.6 1 SSE 0.5 2 SSE 12.1 11.9 29.95 0 0 1.102 0
4/2/18 4:30 13.1 13.2 11.9 78 7.5 0 -- 0 2 SSE 13.1 12.9 29.946 0 0 1.081 0
4/2/18 5:00 12.8 13.2 12.8 79 7.5 0 -- 0 4 SSE 12.8 12.6 29.937 0 0 1.087 0
4/2/18 5:30 12.7 13 12.7 79 7.4 0 -- 0 0 -- 12.7 12.5 29.923 0 0 1.09 0
4/2/18 6:00 12.9 13.3 12.7 79 7.6 0 -- 0 1 SSE 12.9 12.7 29.909 0 0 1.085 0
4/2/18 6:30 13.5 13.5 12.7 80 8.5 0 -- 0 2 SSE 13.5 13.3 29.893 0 0 1.073 0
4/2/18 7:00 14.9 14.9 13.5 78 9.3 1 ENE 0.5 3 E 14.9 14.7 29.883 0 0 1.044 0
4/2/18 7:30 16.8 16.8 14.9 74 9.9 2 NE 1 6 NE 14.3 16.6 29.881 0 0 1.004 0
4/2/18 8:00 17.9 17.9 16.8 73 10.7 3 NE 1.5 6 NE 13.4 17.6 29.874 0 0 0.981 0
4/2/18 8:30 19 19 17.9 74 12.1 3 NE 1.5 7 ENE 14.6 18.7 29.891 0 0 0.958 0
4/2/18 9:00 19.4 19.4 18.9 73 12.2 2 ENE 1 5 NE 17.1 19.1 29.904 0 0 0.95 0
4/2/18 9:30 19.2 19.6 19.2 79 13.8 2 ENE 1 5 NNE 16.9 19 29.909 0 0 0.954 0
4/2/18 10:00 19.4 19.5 19.1 81 14.5 3 NE 1.5 6 ENE 15.1 19.2 29.892 0 0 0.95 0
4/2/18 10:30 19.6 20 19.3 81 14.7 4 NE 2 9 ENE 13.8 19.4 29.889 0 0 0.946 0
4/2/18 11:00 20.9 20.9 19.5 80 15.7 4 NE 2 10 NE 15.3 20.7 29.884 0 0 0.919 0
4/2/18 11:30 21.8 21.8 20.9 80 16.6 6 NE 3 11 NNE 14.1 21.6 29.887 0 0 0.9 0
4/2/18 12:00 22.5 22.5 21.8 80 17.3 6 NE 3 13 NE 14.9 22.2 29.893 0 0 0.885 0
4/2/18 12:30 23.3 23.3 22.5 82 18.6 5 NE 2.5 10 NE 16.9 23 29.888 0 0 0.869 0
4/2/18 13:00 23.9 23.9 23.3 82 19.2 6 NE 3 12 NE 16.6 23.6 29.877 0 0 0.856 0
4/2/18 13:30 24.8 24.9 23.9 82 20.1 5 NE 2.5 11 NE 18.6 24.5 29.856 0 0 0.838 0
4/2/18 14:00 25.7 25.7 24.6 82 21 6 NE 3 12 NE 18.7 25.4 29.856 0 0 0.819 0
4/2/18 14:30 27.4 27.4 25.7 81 22.3 6 NE 3 12 NE 20.8 27.1 29.85 0 0 0.783 0
4/2/18 15:00 27.2 27.5 27.1 81 22.1 6 NE 3 13 NNE 20.5 26.9 29.851 0 0 0.787 0
4/2/18 15:30 26.8 27.4 26.7 81 21.8 7 NNE 3.5 14 NNE 19.2 26.5 29.853 0 0 0.796 0
4/2/18 16:00 26.5 26.7 26.4 82 21.7 7 NNE 3.5 17 NE 18.9 26.2 29.858 0 0 0.802 0
4/2/18 16:30 26.6 26.7 26.3 83 22.1 6 NNE 3 16 ENE 19.8 26.4 29.86 0 0 0.8 0
4/2/18 17:00 26.1 26.7 26.1 83 21.6 6 NNE 3 13 NE 19.2 25.9 29.854 0 0 0.81 0
4/2/18 17:30 26.1 26.5 26 83 21.6 6 NNE 3 14 N 19.2 25.9 29.858 0 0 0.81 0
4/2/18 18:00 26.2 26.4 26 83 21.7 6 NNE 3 11 N 19.3 26 29.867 0 0 0.808 0
4/2/18 18:30 26.5 26.5 26.2 82 21.7 6 NNE 3 14 NE 19.7 26.2 29.871 0 0 0.802 0
4/2/18 19:00 26.2 26.5 26.1 81 21.2 6 NNE 3 12 NNE 19.3 25.9 29.872 0 0 0.808 0
4/2/18 19:30 26 26.2 26 79 20.4 4 NNE 2 12 NNE 21.1 25.7 29.892 0 0 0.812 0
4/2/18 20:00 25.7 26.1 25.7 72 17.9 6 NNE 3 11 N 18.7 25.3 29.894 0 0 0.819 0
4/2/18 20:30 23.6 25.8 23.6 76 17.1 7 NNE 3.5 17 N 15.4 23.3 29.895 0 0 0.863 0
4/2/18 21:00 22.2 23.5 22.1 76 15.8 8 N 4 15 NNE 12.9 21.9 29.91 0 0 0.892 0
4/2/18 21:30 21.5 22.2 21.4 76 15.1 9 N 4.5 18 NNW 11.4 21.2 29.929 0 0 0.906 0
4/2/18 22:00 20.4 21.5 20.4 76 14 8 N 4 15 N 10.7 20.1 29.93 0 0 0.929 0
4/2/18 22:30 20.2 20.5 20.1 76 13.8 9 N 4.5 16 N 9.8 19.9 29.928 0 0 0.933 0
4/2/18 23:00 20.3 20.5 20.2 75 13.6 8 N 4 16 N 10.6 20 29.95 0 0 0.931 0
4/2/18 23:30 20.5 20.6 20.3 75 13.8 8 N 4 18 N 10.8 20.2 29.974 0 0 0.927 0
4/3/18 0:00 20.2 20.6 20.1 74 13.2 10 N 5 18 NNW 9.1 19.9 29.981 0 0 0.933 0
4/3/18 0:30 19.9 20.2 19.8 75 13.3 9 N 4.5 18 N 9.4 19.6 29.982 0 0 0.94 0
4/3/18 1:00 20.2 20.3 19.9 72 12.6 9 NNE 4.5 15 NNE 9.8 19.9 30.012 0 0 0.933 0
4/3/18 1:30 18.4 20.3 18.4 74 11.5 9 NNE 4.5 16 NNE 7.5 18.1 30 0 0 0.971 0
4/3/18 2:00 16.6 18.4 16.6 75 10.1 10 N 5 18 NNW 4.6 16.4 29.996 0 0 1.008 0
4/3/18 2:30 16.2 16.6 16.1 75 9.7 9 N 4.5 17 N 4.8 16 30.009 0 0 1.017 0
4/3/18 3:00 15.4 16.2 15.4 75 8.9 7 N 3.5 18 N 5.5 15.2 30.021 0 0 1.033 0
4/3/18 3:30 14.4 15.4 14.4 75 7.9 6 N 3 19 NNE 5.3 14.2 30.037 0 0 1.054 0
4/3/18 4:00 13.6 14.5 13.6 76 7.4 6 N 3 16 NW 4.3 13.4 30.038 0 0 1.071 0
4/3/18 4:30 13 13.7 13 76 6.9 7 N 3.5 17 N 2.6 12.8 30.029 0 0 1.083 0
4/3/18 5:00 12.2 13 12.2 75 5.8 7 N 3.5 16 NNW 1.6 12 30.041 0 0 1.1 0
4/3/18 5:30 11.4 12.3 11.4 76 5.3 7 N 3.5 16 NNW 0.7 11.2 30.05 0 0 1.117 0
4/3/18 6:00 9.9 11.4 9.9 76 3.8 8 N 4 17 NNW -2.1 9.7 30.041 0 0 1.148 0
4/3/18 6:30 8.5 9.9 8.5 75 2.2 8 N 4 17 NNW -3.8 8.3 30.048 0 0 1.177 0
4/3/18 7:00 7.7 8.5 7.7 75 1.4 6 N 3 15 N -2.7 7.5 30.062 0 0 1.194 0
4/3/18 7:30 7.1 7.7 7 74 0.6 7 N 3.5 17 N -4.5 6.9 30.086 0 0 1.206 0
4/3/18 8:00 7.1 7.2 6.9 73 0.3 6 N 3 15 NNW -3.4 6.9 30.099 0 0 1.206 0
4/3/18 8:30 7.6 7.6 7 72 0.5 7 N 3.5 16 NW -3.9 7.4 30.093 0 0 1.196 0
4/3/18 9:00 8.3 8.4 7.6 69 0.2 7 N 3.5 17 NNW -3.1 8.1 30.122 0 0 1.181 0
4/3/18 9:30 8.9 8.9 8.2 69 0.8 6 N 3 16 NNW -1.3 8.7 30.135 0 0 1.169 0
4/3/18 10:00 10.2 10.2 8.7 67 1.4 6 NNW 3 15 NNW 0.3 9.9 30.14 0 0 1.142 0
4/3/18 10:30 10.2 10.4 9.9 65 0.8 6 N 3 16 N 0.3 9.9 30.139 0 0 1.142 0
4/3/18 11:00 11.5 11.7 10.1 66 2.3 7 N 3.5 16 NNE 0.8 11.2 30.136 0 0 1.115 0
4/3/18 11:30 11.9 11.9 11.3 66 2.7 7 N 3.5 17 NNW 1.3 11.6 30.141 0 0 1.106 0
4/3/18 12:00 12.7 13 11.9 64 2.8 7 N 3.5 16 N 2.2 12.4 30.157 0 0 1.09 0
4/3/18 12:30 13.2 13.3 12.6 63 2.9 5 NNW 2.5 14 N 5 12.9 30.158 0 0 1.079 0
4/3/18 13:00 14.3 14.5 13 61 3.3 5 NW 2.5 15 NW 6.3 14 30.168 0 0 1.056 0
4/3/18 13:30 14.5 14.6 14.2 60 3.1 4 NW 2 14 NW 7.9 14.1 30.174 0 0 1.052 0
4/3/18 14:00 15.7 15.7 14.6 57 3.1 5 NW 2.5 14 NNW 7.9 15.3 30.174 0 0 1.027 0
4/3/18 14:30 15.6 15.8 15.1 53 1.5 5 NW 2.5 14 NW 7.8 15.2 30.171 0 0 1.029 0
4/3/18 15:00 15.7 15.9 15.3 52 1.2 6 NW 3 18 NW 6.8 15.2 30.173 0 0 1.027 0
4/3/18 15:30 15.9 16.1 15.5 54 2.2 6 NW 3 16 NW 7.1 15.5 30.169 0 0 1.023 0
4/3/18 16:00 16.5 16.5 15.7 53 2.3 5 NW 2.5 16 WNW 8.9 16.1 30.164 0 0 1.01 0
4/3/18 16:30 17 17.2 16.4 54 3.2 5 NW 2.5 14 NW 9.5 16.6 30.164 0 0 1 0
4/3/18 17:00 17.1 17.6 17 53 2.9 5 NNW 2.5 15 N 9.6 16.7 30.161 0 0 0.998 0
4/3/18 17:30 17.1 17.5 17 53 2.9 4 NW 2 16 NNW 10.9 16.7 30.163 0 0 0.998 0
4/3/18 18:00 17 17.5 17 55 3.6 3 NW 1.5 13 NW 12.3 16.6 30.166 0 0 1 0
4/3/18 18:30 16.5 17 16.4 57 3.9 2 NW 1 9 NW 13.9 16.1 30.17 0 0 1.01 0
4/3/18 20:00 16.2 16.5 16.2 59 4.4 1 NNW 0.5 4 NNW 16.2 15.8 30.171 0 0 1.017 0
4/3/18 20:30 15.2 16.2 15.2 63 4.9 0 -- 0 3 NNW 15.2 14.9 30.175 0 0 1.038 0
4/3/18 21:00 15 15.2 14.9 63 4.7 0 -- 0 3 WNW 15 14.7 30.179 0 0 1.042 0
4/3/18 21:30 14.3 15 14.3 65 4.7 0 -- 0 3 W 14.3 14 30.181 0 0 1.056 0
4/3/18 22:00 12.9 14.5 12.9 69 4.6 0 -- 0 2 W 12.9 12.6 30.179 0 0 1.085 0
4/3/18 22:30 11.9 13 11.9 72 4.6 0 -- 0 0 -- 11.9 11.7 30.18 0 0 1.106 0
4/3/18 23:00 10.1 12.1 10.1 74 3.5 0 -- 0 0 -- 10.1 9.9 30.184 0 0 1.144 0
4/3/18 23:30 9.4 10.1 9.2 77 3.6 0 -- 0 2 W 9.4 9.2 30.187 0 0 1.158 0
4/4/18 0:00 10.1 10.1 9.3 78 4.6 0 -- 0 0 -- 10.1 10 30.18 0 0 1.144 0
4/4/18 0:30 7.7 10.5 7.7 79 2.5 0 -- 0 0 -- 7.7 7.6 30.178 0 0 1.194 0
4/4/18 1:00 8.6 8.6 7.3 79 3.4 0 -- 0 0 -- 8.6 8.5 30.177 0 0 1.175 0
4/4/18 1:30 7.5 8.7 7.3 80 2.6 0 -- 0 2 W 7.5 7.4 30.176 0 0 1.198 0
4/4/18 2:00 7.1 7.5 7 80 2.2 0 -- 0 0 -- 7.1 7 30.172 0 0 1.206 0
4/4/18 2:30 8.7 8.7 6.9 79 3.5 0 -- 0 2 SW 8.7 8.6 30.171 0 0 1.173 0
4/4/18 3:00 9.4 9.6 8.8 78 3.9 1 WSW 0.5 4 WSW 9.4 9.3 30.171 0 0 1.158 0
4/4/18 3:30 9.4 9.7 9.2 78 3.9 1 WSW 0.5 4 WSW 9.4 9.3 30.164 0 0 1.158 0
4/4/18 4:00 7.9 9.4 7.6 80 3 0 -- 0 1 WSW 7.9 7.8 30.164 0 0 1.19 0
4/4/18 4:30 6.9 8.2 6.8 79 1.8 0 -- 0 2 S 6.9 6.8 30.162 0 0 1.21 0
4/4/18 5:00 7.7 8 6.5 79 2.5 0 -- 0 2 SSW 7.7 7.6 30.162 0 0 1.194 0
4/4/18 5:30 6.5 7.7 6.5 80 1.6 0 -- 0 2 SSW 6.5 6.4 30.165 0 0 1.219 0
4/4/18 6:00 5 6.5 4.9 81 0.4 0 -- 0 2 SSW 5 4.9 30.162 0 0 1.25 0
4/4/18 6:30 4.6 5.2 4.1 82 0.3 0 -- 0 3 S 4.6 4.5 30.171 0 0 1.258 0
4/4/18 7:00 5.3 5.3 4.6 81 0.7 0 -- 0 9 SSE 5.3 5.2 30.169 0 0 1.244 0
4/4/18 7:30 5.3 5.4 4.7 80 0.5 0 -- 0 2 S 5.3 5.2 30.168 0 0 1.244 0
4/4/18 8:00 8 8 5.3 79 2.8 0 -- 0 2 S 8 7.9 30.178 0 0 1.188 0
4/4/18 8:30 13.4 13.5 8 72 6.1 1 WSW 0.5 7 WSW 13.4 13.1 30.172 0 0 1.075 0
4/4/18 9:00 16.2 16.3 13.5 68 7.5 3 WSW 1.5 8 WSW 11.4 15.9 30.174 0 0 1.017 0
4/4/18 9:30 18.9 18.9 16.2 64 8.7 4 WSW 2 10 WSW 12.9 18.5 30.175 0 0 0.96 0
4/4/18 10:00 21.2 21.3 18.9 61 9.8 3 WSW 1.5 8 WNW 17.1 20.7 30.173 0 0 0.912 0
4/4/18 10:30 22.4 22.4 21 59 10.2 4 WSW 2 9 SW 17 21.9 30.174 0 0 0.887 0
4/4/18 11:00 24.3 24.3 22.4 59 12 4 WSW 2 10 WSW 19.2 23.8 30.168 0 0 0.848 0
4/4/18 11:30 25.9 26.1 24.4 57 12.7 4 WSW 2 11 WSW 21 25.3 30.164 0 0 0.815 0
4/4/18 12:00 27.7 28 25.8 55 13.6 4 WSW 2 11 W 23.1 27 30.161 0 0 0.777 0
4/4/18 12:30 28.5 28.5 27.4 55 14.4 5 WSW 2.5 11 W 23 27.8 30.16 0 0 0.76 0
4/4/18 13:00 29.2 29.2 28.4 54 14.6 5 WSW 2.5 11 WSW 23.8 28.5 30.154 0 0 0.746 0
4/4/18 13:30 29.6 29.8 29 52 14.1 5 WSW 2.5 11 W 24.3 28.8 30.153 0 0 0.738 0
4/4/18 14:00 30.2 30.2 29.4 53 15.1 5 W 2.5 12 W 25 29.4 30.149 0 0 0.725 0
4/4/18 14:30 30 30.4 29.4 48 12.7 6 WSW 3 15 W 23.8 29.2 30.146 0 0 0.729 0
4/4/18 15:00 29.7 30.4 29.5 49 12.8 6 WSW 3 16 SW 23.5 28.9 30.14 0 0 0.735 0
4/4/18 15:30 30.8 30.9 29.8 49 13.9 5 WSW 2.5 15 W 25.7 29.9 30.133 0 0 0.713 0
4/4/18 16:00 30.4 30.9 30.3 49 13.5 5 WSW 2.5 15 WSW 25.2 29.5 30.125 0 0 0.721 0
4/4/18 16:30 30.1 30.5 30 47 12.3 7 WSW 3.5 17 W 23.2 29.2 30.119 0 0 0.727 0
4/4/18 17:00 30.1 30.4 29.7 45 11.3 7 WSW 3.5 15 WSW 23.2 29.2 30.113 0 0 0.727 0
4/4/18 17:30 29.9 30.4 29.9 43 10.1 5 WSW 2.5 14 W 24.6 29 30.11 0 0 0.731 0
4/4/18 18:00 29.7 30.2 29.7 47 11.9 5 WSW 2.5 13 W 24.4 28.8 30.109 0 0 0.735 0
4/4/18 18:30 29.5 30.1 29.3 49 12.7 3 SW 1.5 10 WSW 26.5 28.7 30.109 0 0 0.74 0
4/4/18 19:00 28.3 29.5 28.3 52 12.9 4 WSW 2 12 W 23.8 27.5 30.114 0 0 0.765 0
4/4/18 19:30 27.6 28.3 27.6 53 12.7 4 WSW 2 13 WSW 23 26.9 30.11 0 0 0.779 0
4/4/18 20:00 26.5 27.6 26.5 57 13.3 3 WSW 1.5 12 W 23.1 25.9 30.108 0 0 0.802 0
4/4/18 20:30 25.6 26.5 25.6 60 13.6 2 WSW 1 8 WSW 23.9 25 30.114 0 0 0.821 0
4/4/18 21:00 24.7 25.6 24.7 63 13.9 2 WSW 1 7 WSW 22.9 24.2 30.127 0 0 0.84 0
4/4/18 21:30 24 24.8 23.9 65 13.9 0 -- 0 2 SW 24 23.5 30.125 0 0 0.854 0
4/4/18 22:00 22.9 24 22.9 67 13.6 0 -- 0 3 WSW 22.9 22.5 30.127 0 0 0.877 0
4/4/18 22:30 22.2 22.9 22.2 69 13.6 0 -- 0 1 WSW 22.2 21.8 30.124 0 0 0.892 0
4/4/18 23:00 21 22.2 20.9 72 13.4 0 -- 0 1 WSW 21 20.7 30.121 0 0 0.917 0
4/4/18 23:30 20.4 21 20 73 13.1 0 -- 0 2 WSW 20.4 20.1 30.114 0 0 0.929 0
4/5/18 0:00 20.7 20.8 20.2 74 13.7 0 -- 0 3 WSW 20.7 20.4 30.105 0 0 0.923 0
4/5/18 0:30 22 22 20.8 74 15 3 WSW 1.5 9 WSW 18 21.7 30.104 0 0 0.896 0
4/5/18 1:00 22.1 22.7 22 74 15.1 5 WSW 2.5 13 W 15.4 21.8 30.104 0 0 0.894 0
4/5/18 1:30 21.3 22.1 21.3 75 14.6 3 W 1.5 11 W 17.2 21 30.103 0 0 0.91 0
4/5/18 2:00 21.2 21.4 21.1 75 14.5 4 W 2 10 W 15.6 20.9 30.094 0 0 0.912 0
4/5/18 2:30 20.2 21.1 20.2 77 14.1 3 W 1.5 9 W 16 19.9 30.093 0 0 0.933 0
4/5/18 3:00 19.2 20.2 19.1 77 13.2 3 W 1.5 9 W 14.8 18.9 30.093 0 0 0.954 0
4/5/18 3:30 18.5 19.2 18.5 78 12.8 3 W 1.5 8 WSW 14 18.3 30.093 0 0 0.969 0
4/5/18 4:00 18.1 18.7 18.1 78 12.4 3 W 1.5 8 WSW 13.6 17.9 30.092 0 0 0.977 0
4/5/18 4:30 17.9 18.2 17.9 79 12.5 2 W 1 4 W 15.5 17.7 30.089 0 0 0.981 0
4/5/18 5:00 17.5 17.9 17.4 79 12.1 1 W 0.5 4 W 17.5 17.3 30.085 0 0 0.99 0
4/5/18 5:30 16.9 17.5 16.9 80 11.8 1 W 0.5 4 W 16.9 16.7 30.086 0 0 1.002 0
4/5/18 6:00 16 16.9 16 81 11.2 0 -- 0 2 WNW 16 15.8 30.086 0 0 1.021 0
4/5/18 6:30 15.1 16.2 15 82 10.6 0 -- 0 0 -- 15.1 14.9 30.079 0 0 1.04 0
4/5/18 7:00 13.8 15.2 13.5 83 9.6 0 -- 0 0 -- 13.8 13.7 30.079 0 0 1.067 0
4/5/18 7:30 14 14 13 83 9.8 0 -- 0 3 S 14 13.9 30.071 0 0 1.062 0
4/5/18 8:00 15.5 15.5 13.7 82 11 1 SSE 0.5 4 SSE 15.5 15.3 30.06 0 0 1.031 0
4/5/18 8:30 17.3 17.3 15.5 80 12.2 2 SSE 1 6 SSE 14.8 17.1 30.057 0 0 0.994 0
4/5/18 9:00 18.6 18.6 17.2 79 13.2 3 SSE 1.5 8 SSE 14.2 18.4 30.055 0 0 0.967 0
4/5/18 9:30 20.5 20.5 18.6 77 14.4 3 SSE 1.5 7 SSE 16.3 20.2 30.055 0 0 0.927 0
4/5/18 10:00 20.9 21.2 20.5 77 14.8 1 ESE 0.5 3 SSE 20.9 20.6 30.049 0 0 0.919 0
4/5/18 10:30 22.8 22.8 20.8 76 16.4 2 ESE 1 4 ESE 20.9 22.5 30.037 0 0 0.879 0
4/5/18 11:00 22.4 22.9 22 79 16.9 2 ESE 1 6 ESE 20.4 22.1 30.032 0 0 0.887 0
4/5/18 11:30 23.3 23.3 22.4 77 17.2 2 NE 1 4 ESE 21.4 23 30.039 0 0 0.869 0
4/5/18 12:00 23.1 24 23.1 81 18.1 4 N 2 11 N 17.8 22.8 30.066 0 0 0.873 0
4/5/18 12:30 22.5 23.1 22.4 83 18.1 4 N 2 11 N 17.1 22.3 30.071 0 0 0.885 0
4/5/18 13:00 22.5 22.7 22.5 82 17.8 3 N 1.5 8 NW 18.6 22.3 30.062 0 0 0.885 0
4/5/18 13:30 23.8 23.8 22.5 83 19.4 2 SE 1 8 SSE 22 23.6 30.037 0 0 0.858 0
4/5/18 14:00 26.5 26.6 23.8 81 21.5 2 ESE 1 6 E 24.9 26.2 30.049 0 0 0.802 0
4/5/18 14:30 26.9 27.5 26.1 80 21.6 4 NNE 2 9 NNE 22.2 26.6 30.053 0 0 0.794 0
4/5/18 15:00 26.8 27.4 26.3 78 20.9 5 NNE 2.5 11 NNE 21 26.5 30.052 0 0 0.796 0
4/5/18 15:30 27.3 27.6 26.6 76 20.7 5 N 2.5 10 NNE 21.6 26.9 30.055 0 0 0.785 0
4/5/18 16:00 28 28 27.2 70 19.5 4 NNW 2 11 NNE 23.5 27.5 30.052 0 0 0.771 0
4/5/18 16:30 28.7 29.3 28.1 68 19.5 5 NW 2.5 12 WNW 23.2 28.2 30.047 0 0 0.756 0
4/5/18 17:00 27.7 28.6 26.8 71 19.5 4 NW 2 14 NNW 23.1 27.2 30.046 0 0 0.777 0
4/5/18 17:30 27.2 29 27.2 71 19 6 WNW 3 17 NW 20.5 26.8 30.043 0 0 0.787 0
4/5/18 18:00 26.7 27.4 26.6 75 19.8 6 WNW 3 15 WNW 19.9 26.3 30.039 0 0 0.798 0
4/5/18 18:30 27.5 27.7 26.5 65 17.3 5 NW 2.5 13 WNW 21.8 27 30.042 0 0 0.781 0
4/5/18 19:00 25.6 27.5 25.6 66 15.8 6 WNW 3 15 W 18.6 25.1 30.036 0 0 0.821 0
4/5/18 19:30 24.8 25.8 24.8 69 16.1 6 WNW 3 15 NW 17.7 24.4 30.035 0 0 0.838 0
4/5/18 20:00 24.8 24.8 24.4 70 16.4 5 WNW 2.5 12 W 18.6 24.4 30.031 0 0 0.838 0
4/5/18 20:30 24.2 25 24.2 77 18 7 W 3.5 15 WNW 16.1 23.9 30.033 0 0 0.85 0
4/5/18 21:00 23.3 24.2 23.3 82 18.6 6 W 3 15 W 15.9 23 30.028 0 0 0.869 0
4/5/18 21:30 22.9 23.4 22.9 80 17.7 6 W 3 13 WNW 15.4 22.6 30.025 0 0 0.877 0
4/5/18 22:00 22.4 22.9 22.4 74 15.4 7 WNW 3.5 15 W 13.9 22.1 30.023 0 0 0.887 0
4/5/18 22:30 21.4 22.4 21.3 73 14.1 8 W 4 15 W 11.9 21.1 30.027 0 0 0.908 0
4/5/18 23:00 20.4 21.3 20.4 70 12.2 9 WNW 4.5 20 WNW 10 20.1 30.03 0 0 0.929 0
4/5/18 23:30 19.4 20.4 19.4 71 11.5 10 WNW 5 19 WNW 8.1 19.1 30.043 0 0 0.95 0
4/6/18 0:00 19.1 19.4 18.8 82 14.5 7 WNW 3.5 17 NW 10 18.9 30.058 0 0 0.956 0
4/6/18 0:30 17.5 19.1 17.5 73 10.3 7 NW 3.5 23 N 8 17.2 30.07 0 0 0.99 0
4/6/18 1:00 15.6 17.5 15.5 71 7.9 7 NW 3.5 20 WNW 5.7 15.3 30.087 0 0 1.029 0
4/6/18 1:30 13.5 15.5 13.5 69 5.2 6 NW 3 16 NNW 4.2 13.2 30.095 0 0 1.073 0
4/6/18 2:00 11.7 13.5 11.7 63 1.5 7 NW 3.5 23 WNW 1 11.4 30.107 0 0 1.11 0
4/6/18 2:30 10 11.7 10 65 0.6 9 NW 4.5 22 W -2.8 9.7 30.112 0 0 1.146 0
4/6/18 3:00 9 10 9 69 0.9 9 WNW 4.5 22 WNW -4 8.8 30.127 0 0 1.167 0
4/6/18 3:30 8.3 9.1 8.3 74 1.7 9 WNW 4.5 22 WNW -4.9 8.1 30.144 0 0 1.181 0
4/6/18 4:00 8.1 8.3 8.1 77 2.4 8 NW 4 21 WNW -4.3 7.9 30.163 0 0 1.185 0
4/6/18 4:30 7.9 8.1 7.9 78 2.5 7 WNW 3.5 17 NW -3.5 7.8 30.188 0 0 1.19 0
4/6/18 5:00 8.5 8.5 7.8 78 3 5 NW 2.5 16 N -0.5 8.4 30.209 0 0 1.177 0
4/6/18 5:30 7.6 8.5 7.6 73 0.7 6 NW 3 19 NNW -2.8 7.4 30.227 0 0 1.196 0
4/6/18 6:00 6.1 7.6 6.1 75 -0.1 7 NNW 3.5 21 NNW -5.7 5.9 30.251 0 0 1.227 0
4/6/18 6:30 5.2 6.1 5.2 70 -2.5 7 NW 3.5 18 NW -6.8 5 30.27 0 0 1.246 0
4/6/18 7:00 4.5 5.2 4.3 68 -3.7 6 NNW 3 16 NW -6.5 4.3 30.29 0 0 1.26 0
4/6/18 7:30 4.4 4.7 4.4 68 -3.8 5 NW 2.5 17 NW -5.3 4.2 30.304 0 0 1.263 0
4/6/18 8:00 4.2 4.5 4.1 66 -4.7 5 NW 2.5 17 WNW -5.6 4 30.322 0 0 1.267 0
4/6/18 8:30 4.5 4.5 4 65 -4.7 7 WNW 3.5 16 W -7.6 4.3 30.339 0 0 1.26 0
4/6/18 9:00 5.7 5.7 4.5 61 -4.9 8 WNW 4 19 NNW -7.2 5.4 30.347 0 0 1.235 0
4/6/18 9:30 6.9 6.9 5.8 59 -4.4 7 WNW 3.5 24 WNW -4.8 6.6 30.352 0 0 1.21 0
4/6/18 10:00 7.5 7.5 6.8 59 -3.9 8 WNW 4 19 WNW -5 7.2 30.354 0 0 1.198 0
4/6/18 10:30 8.3 8.5 7.6 57 -3.8 8 WNW 4 19 WNW -4 8 30.36 0 0 1.181 0
4/6/18 11:00 9.2 9.2 8.3 57 -3 8 NW 4 20 W -2.9 8.9 30.365 0 0 1.163 0
4/6/18 11:30 9.8 10.5 9.1 57 -2.4 7 NW 3.5 19 WNW -1.3 9.5 30.361 0 0 1.15 0
4/6/18 12:00 11.7 11.7 9.8 58 -0.3 7 WNW 3.5 18 WNW 1 11.4 30.359 0 0 1.11 0
4/6/18 12:30 11.4 12 10.6 57 -0.9 9 WNW 4.5 19 W -1.1 11.1 30.357 0 0 1.117 0
4/6/18 13:00 12.4 12.5 11.4 58 0.4 9 WNW 4.5 20 WNW 0.2 12.1 30.35 0 0 1.096 0
4/6/18 13:30 13.2 13.6 12.3 58 1.2 8 WNW 4 18 WNW 2 12.9 30.347 0 0 1.079 0
4/6/18 14:00 15 15 13.2 56 2.1 9 WNW 4.5 19 W 3.4 14.6 30.339 0 0 1.042 0
4/6/18 14:30 15.7 15.8 14.4 57 3.1 9 WNW 4.5 18 NW 4.2 15.3 30.332 0 0 1.027 0
4/6/18 15:00 16 16.4 15.4 57 3.4 10 WNW 5 22 W 3.9 15.6 30.326 0 0 1.021 0
4/6/18 15:30 17.5 17.7 16.1 58 5.2 10 WNW 5 20 WNW 5.8 17.1 30.318 0 0 0.99 0
4/6/18 16:00 19 19.1 17.4 58 6.6 10 WNW 5 20 W 7.6 18.6 30.303 0 0 0.958 0
4/6/18 16:30 20 20.3 18.9 59 8 9 WNW 4.5 20 NW 9.5 19.6 30.295 0 0 0.938 0
4/6/18 17:00 20.3 20.4 19.8 60 8.6 11 WNW 5.5 23 W 8.6 19.9 30.293 0 0 0.931 0
4/6/18 17:30 21.1 21.3 20.2 60 9.4 10 WNW 5 23 WNW 10.2 20.6 30.283 0 0 0.915 0
4/6/18 18:00 20.8 21.1 20.5 62 9.8 10 WNW 5 21 W 9.8 20.4 30.277 0 0 0.921 0
4/6/18 18:30 21.2 21.5 20.8 63 10.6 8 WNW 4 20 WNW 11.7 20.8 30.271 0 0 0.912 0
4/6/18 19:00 20.6 21.2 20.5 64 10.3 8 WNW 4 22 WNW 11 20.2 30.26 0 0 0.925 0
4/6/18 19:30 19.9 20.6 19.9 65 10 8 WNW 4 17 WSW 10.1 19.5 30.256 0 0 0.94 0
4/6/18 20:00 19.2 19.9 19.2 66 9.7 8 WNW 4 17 WNW 9.3 18.8 30.253 0 0 0.954 0
4/6/18 20:30 18.6 19.3 18.5 68 9.8 7 WNW 3.5 15 WNW 9.3 18.3 30.251 0 0 0.967 0
4/6/18 21:00 17.9 18.6 17.9 69 9.4 6 WNW 3 14 W 9.4 17.6 30.251 0 0 0.981 0
4/6/18 21:30 17.2 18 17.2 70 9.1 6 W 3 13 W 8.6 16.9 30.256 0 0 0.996 0
4/6/18 22:00 16.8 17.3 16.8 70 8.7 6 W 3 14 WNW 8.1 16.5 30.259 0 0 1.004 0
4/6/18 22:30 16.2 16.8 16.2 72 8.8 6 W 3 14 W 7.4 15.9 30.264 0 0 1.017 0
4/6/18 23:00 15.9 16.2 15.8 71 8.2 7 W 3.5 15 W 6.1 15.6 30.264 0 0 1.023 0
4/6/18 23:30 15.1 15.9 15.1 71 7.4 7 WNW 3.5 14 WNW 5.1 14.8 30.265 0 0 1.04 0
4/7/18 0:00 14.4 15.2 14.4 72 7 7 WNW 3.5 15 WNW 4.3 14.1 30.262 0 0 1.054 0
4/7/18 0:30 13.9 14.4 13.9 72 6.5 7 WNW 3.5 15 WNW 3.7 13.6 30.262 0 0 1.065 0
4/7/18 1:00 13.5 14 13.5 73 6.5 7 WNW 3.5 15 WSW 3.2 13.3 30.263 0 0 1.073 0
4/7/18 1:30 13.2 13.5 13.2 73 6.2 7 WNW 3.5 17 WNW 2.8 13 30.269 0 0 1.079 0
4/7/18 2:00 12.5 13.3 12.5 74 5.8 7 WNW 3.5 13 W 2 12.3 30.273 0 0 1.094 0
4/7/18 2:30 12 12.5 12 74 5.3 6 WNW 3 14 NW 2.4 11.8 30.279 0 0 1.104 0
4/7/18 3:00 11.5 12 11.5 74 4.8 5 WNW 2.5 12 WNW 3 11.3 30.279 0 0 1.115 0
4/7/18 3:30 10.9 11.6 10.9 74 4.2 5 WNW 2.5 11 WNW 2.3 10.7 30.273 0 0 1.127 0
4/7/18 4:00 10.3 10.9 10.3 75 3.9 5 WNW 2.5 12 WNW 1.6 10.1 30.269 0 0 1.14 0
4/7/18 4:30 9.9 10.4 9.9 75 3.6 5 WNW 2.5 12 W 1.1 9.7 30.265 0 0 1.148 0
4/7/18 5:00 9.9 10 9.8 75 3.6 5 WNW 2.5 11 WNW 1.1 9.7 30.26 0 0 1.148 0
4/7/18 5:30 9.8 10.2 9.8 75 3.5 4 WNW 2 10 W 2.4 9.6 30.263 0 0 1.15 0
4/7/18 6:00 9.1 9.8 9 76 3.1 3 WNW 1.5 9 WNW 3.4 8.9 30.262 0 0 1.165 0
4/7/18 6:30 8.4 9.1 8.4 76 2.4 3 WNW 1.5 7 WSW 2.6 8.2 30.257 0 0 1.179 0
4/7/18 7:00 7.8 8.4 7.8 77 2.1 3 WNW 1.5 7 WNW 1.9 7.6 30.26 0 0 1.192 0
4/7/18 7:30 8 8 7.6 76 2 3 W 1.5 7 W 2.2 7.8 30.268 0 0 1.188 0
4/7/18 8:00 9.2 9.2 8 75 2.9 4 WNW 2 9 W 1.7 9 30.276 0 0 1.163 0
4/7/18 8:30 10.7 10.7 9.3 72 3.4 4 WNW 2 9 WNW 3.5 10.5 30.277 0 0 1.131 0
4/7/18 9:00 12.5 12.5 10.6 69 4.3 4 WNW 2 9 WNW 5.6 12.2 30.28 0 0 1.094 0
4/7/18 9:30 13.1 13.1 12.2 68 4.5 3 WNW 1.5 8 WNW 7.9 12.8 30.278 0 0 1.081 0
4/7/18 10:00 14.6 14.6 13 66 5.3 3 WNW 1.5 9 W 9.6 14.3 30.275 0 0 1.05 0
4/7/18 10:30 16.3 16.5 14.1 64 6.2 2 NW 1 7 WNW 13.7 16 30.279 0 0 1.015 0
4/7/18 11:00 17.7 17.7 16.1 63 7.2 1 NW 0.5 6 NNW 17.7 17.3 30.276 0 0 0.985 0
4/7/18 11:30 19.9 19.9 17.1 63 9.3 2 N 1 5 N 17.7 19.5 30.271 0 0 0.94 0
4/7/18 12:00 21.5 21.5 19.7 59 9.4 3 N 1.5 5 WNW 17.4 21 30.261 0 0 0.906 0
4/7/18 12:30 21.2 21.6 20.6 60 9.5 2 N 1 6 NNE 19.1 20.7 30.254 0 0 0.912 0
4/7/18 13:00 23.2 23.4 21.2 61 11.7 3 N 1.5 8 NNE 19.4 22.7 30.245 0 0 0.871 0
4/7/18 13:30 23.7 24 22.8 61 12.2 2 NNE 1 6 NE 21.8 23.2 30.233 0 0 0.86 0
4/7/18 14:00 24.4 24.9 23.3 60 12.5 3 NNE 1.5 8 NNE 20.7 23.9 30.224 0 0 0.846 0
4/7/18 14:30 24.3 25.3 24.1 55 10.4 3 ENE 1.5 8 ENE 20.6 23.7 30.217 0 0 0.848 0
4/7/18 15:00 25 25 24.2 57 11.9 4 ENE 2 8 ENE 20 24.4 30.211 0 0 0.833 0
4/7/18 15:30 26.2 26.3 24.5 52 10.9 4 ENE 2 8 ENE 21.4 25.5 30.206 0 0 0.808 0
4/7/18 16:00 25.1 27 24.6 56 11.6 3 ENE 1.5 7 ENE 21.5 24.5 30.19 0 0 0.831 0
4/7/18 16:30 25.1 25.1 24.3 57 12 2 ENE 1 6 NE 23.4 24.5 30.184 0 0 0.831 0
4/7/18 17:00 25.2 25.3 24.7 59 12.9 3 NE 1.5 7 ENE 21.6 24.7 30.174 0 0 0.829 0
4/7/18 17:30 24.1 25.5 24.1 55 10.2 3 NE 1.5 7 ENE 20.4 23.5 30.162 0 0 0.852 0
4/7/18 18:00 24.3 25.1 24 58 11.6 2 NE 1 5 ENE 22.5 23.8 30.149 0 0 0.848 0
4/7/18 18:30 23.6 24.4 23.6 58 11 3 NE 1.5 6 NE 19.8 23.1 30.136 0 0 0.863 0
4/7/18 19:00 22.6 23.6 22.6 60 10.8 3 N 1.5 5 N 18.7 22.1 30.129 0 0 0.883 0
4/7/18 19:30 21.5 22.6 21.4 60 9.7 3 N 1.5 6 N 17.4 21 30.13 0 0 0.906 0
4/7/18 20:00 20.4 21.5 20.4 63 9.8 2 N 1 4 N 18.2 20 30.124 0 0 0.929 0
4/7/18 20:30 18.8 20.5 18.8 69 10.3 0 -- 0 3 NNW 18.8 18.5 30.12 0 0 0.963 0
4/7/18 21:00 17.3 18.9 17.2 72 9.8 0 -- 0 2 N 17.3 17 30.122 0 0 0.994 0
4/7/18 21:30 16.2 17.3 16.2 74 9.4 0 -- 0 0 -- 16.2 16 30.123 0 0 1.017 0
4/7/18 22:00 15.2 16.2 15.2 74 8.4 0 -- 0 0 -- 15.2 15 30.116 0 0 1.038 0
4/7/18 22:30 14.5 15.2 14.5 76 8.3 0 -- 0 0 -- 14.5 14.3 30.103 0 0 1.052 0
4/7/18 23:00 13.3 14.6 13.3 78 7.7 0 -- 0 0 -- 13.3 13.1 30.101 0 0 1.077 0
4/7/18 23:30 12.9 13.4 12.8 80 7.9 0 -- 0 0 -- 12.9 12.7 30.094 0 0 1.085 0
4/8/18 0:00 12.6 13.3 12.6 78 7 0 -- 0 0 -- 12.6 12.4 30.087 0 0 1.092 0
4/8/18 0:30 12.2 12.8 12.2 80 7.2 0 -- 0 0 -- 12.2 12 30.089 0 0 1.1 0
4/8/18 1:00 11.6 12.6 11.5 81 6.9 0 -- 0 0 -- 11.6 11.4 30.082 0 0 1.112 0
4/8/18 1:30 11.3 11.9 11 82 6.9 0 -- 0 1 N 11.3 11.1 30.081 0 0 1.119 0
4/8/18 2:00 12.1 12.6 11.4 82 7.7 1 NE 0.5 5 NE 12.1 11.9 30.081 0 0 1.102 0
4/8/18 2:30 11.8 12.1 11.4 80 6.8 1 NE 0.5 3 NE 11.8 11.6 30.06 0 0 1.108 0
4/8/18 3:00 12.3 12.3 11.3 80 7.3 0 -- 0 3 ENE 12.3 12.1 30.047 0 0 1.098 0
4/8/18 3:30 12.5 12.8 12.3 79 7.2 0 -- 0 2 E 12.5 12.3 30.039 0 0 1.094 0
4/8/18 4:00 12.6 12.9 12.3 79 7.3 0 -- 0 2 E 12.6 12.4 30.039 0 0 1.092 0
4/8/18 4:30 12.3 12.6 12.2 79 7 1 E 0.5 3 ESE 12.3 12.1 30.03 0 0 1.098 0
4/8/18 5:00 11.9 12.4 11.8 80 6.9 1 ESE 0.5 3 ESE 11.9 11.7 30.021 0 0 1.106 0
4/8/18 5:30 13.8 13.9 11.9 76 7.6 2 ESE 1 6 ESE 11 13.6 30.016 0 0 1.067 0
4/8/18 6:00 14.3 14.4 13.8 74 7.5 3 ESE 1.5 8 ESE 9.3 14.1 30.005 0 0 1.056 0
4/8/18 6:30 14.8 14.9 14.3 73 7.7 3 ESE 1.5 7 ESE 9.9 14.6 30.008 0 0 1.046 0
4/8/18 7:00 14.9 15 14.8 72 7.5 4 ESE 2 7 ESE 8.3 14.6 30.007 0 0 1.044 0
4/8/18 7:30 16.2 16.3 14.9 70 8.1 4 ESE 2 8 ESE 9.8 15.9 30.007 0 0 1.017 0
4/8/18 8:00 17.4 17.4 16.2 68 8.6 5 ESE 2.5 11 SE 9.9 17.1 30.013 0 0 0.992 0
4/8/18 8:30 18.6 18.6 17.4 66 9.1 5 ESE 2.5 10 ESE 11.3 18.2 30.004 0 0 0.967 0
4/8/18 9:00 19.4 19.4 18.6 67 10.2 6 ESE 3 9 E 11.2 19 29.99 0 0 0.95 0
4/8/18 9:30 21.2 21.2 19.4 64 10.9 5 ESE 2.5 10 E 14.4 20.8 29.989 0 0 0.912 0
4/8/18 10:00 23.4 23.4 21.2 60 11.5 4 ESE 2 11 E 18.1 22.9 29.996 0 0 0.867 0
4/8/18 10:30 25.3 25.3 23.4 58 12.6 5 ESE 2.5 9 ESE 19.2 24.7 29.994 0 0 0.827 0
4/8/18 11:00 25.4 25.6 25 58 12.7 5 SE 2.5 12 SSE 19.3 24.8 29.997 0 0 0.825 0
4/8/18 11:30 25.7 25.7 25 57 12.6 5 ESE 2.5 11 E 19.7 25.1 29.992 0 0 0.819 0
4/8/18 12:00 26.8 26.8 25.8 58 14 4 ESE 2 10 ESE 22.1 26.2 29.989 0 0 0.796 0
4/8/18 12:30 27.1 27.2 26.6 54 12.6 4 ESE 2 8 SE 22.4 26.4 29.992 0 0 0.79 0
4/8/18 13:00 28.2 28.2 27.1 57 14.9 4 ESE 2 8 SE 23.7 27.5 29.992 0 0 0.767 0
4/8/18 13:30 27.2 28.1 26.9 66 17.3 4 ESE 2 8 ESE 22.5 26.7 29.988 0 0 0.787 0
4/8/18 14:00 27.2 27.2 26.7 71 19 3 ESE 1.5 7 SE 23.9 26.8 29.994 0 0 0.787 0
4/8/18 14:30 27.2 27.4 26.9 73 19.7 3 ENE 1.5 9 ENE 23.9 26.8 29.989 0 0 0.787 0
4/8/18 15:00 27.6 27.7 27.2 76 21 3 ESE 1.5 7 ESE 24.3 27.2 29.993 0 0 0.779 0
4/8/18 15:30 27.2 27.6 27 80 21.8 4 ESE 2 7 E 22.5 26.9 29.995 0 0 0.787 0
4/8/18 16:00 27.2 27.2 27 82 22.4 4 E 2 9 ESE 22.5 26.9 29.998 0 0 0.787 0
4/8/18 16:30 27.2 27.4 27.1 83 22.7 4 E 2 8 ENE 22.5 27 30 0 0 0.787 0
4/8/18 17:00 27.4 27.5 27.1 84 23.2 3 E 1.5 7 E 24.1 27.2 30.003 0 0 0.783 0
4/8/18 17:30 27.8 27.9 27.3 84 23.6 3 ENE 1.5 7 E 24.6 27.6 30.009 0 0 0.775 0
4/8/18 18:00 28 28.3 27.8 84 23.8 3 ENE 1.5 7 ESE 24.8 27.8 30.018 0 0 0.771 0
4/8/18 18:30 27.9 28.1 27.7 84 23.7 3 ENE 1.5 8 ENE 24.7 27.7 30.024 0 0 0.773 0
4/8/18 19:00 27.7 27.9 27.6 85 23.8 3 ENE 1.5 8 ENE 24.5 27.5 30.028 0 0 0.777 0
4/8/18 19:30 27.4 27.7 27.4 85 23.5 2 ENE 1 5 E 25.9 27.2 30.042 0 0 0.783 0
4/8/18 20:00 27.2 27.6 27.2 86 23.6 1 E 0.5 4 E 27.2 27 30.049 0 0 0.787 0
4/8/18 20:30 26.8 27.2 26.7 87 23.4 2 ENE 1 4 ENE 25.3 26.6 30.056 0 0 0.796 0
4/8/18 21:00 26.5 26.8 26.5 87 23.2 1 ENE 0.5 4 ENE 26.5 26.3 30.066 0 0 0.802 0
4/8/18 21:30 26.3 26.5 26.2 88 23.2 1 ENE 0.5 3 ENE 26.3 26.2 30.077 0 0 0.806 0
4/8/18 22:00 26.3 26.3 26.1 88 23.2 0 -- 0 2 ENE 26.3 26.2 30.089 0 0 0.806 0
4/8/18 22:30 26.4 26.5 26.3 88 23.3 0 -- 0 1 ENE 26.4 26.3 30.093 0 0 0.804 0
4/8/18 23:00 26.2 26.4 26.1 88 23.1 1 E 0.5 2 E 26.2 26.1 30.1 0 0 0.808 0
4/8/18 23:30 26.1 26.2 26.1 88 23 0 -- 0 2 E 26.1 26 30.104 0 0 0.81 0
4/9/18 0:00 26.1 26.2 26.1 88 23 0 -- 0 0 -- 26.1 26 30.105 0 0 0.81 0
4/9/18 0:30 26.1 26.2 26 88 23 0 -- 0 0 -- 26.1 26 30.111 0 0 0.81 0
4/9/18 1:00 26.1 26.2 26 88 23 0 -- 0 0 -- 26.1 26 30.123 0 0 0.81 0
4/9/18 1:30 26.1 26.1 26 88 23 0 -- 0 0 -- 26.1 26 30.125 0 0 0.81 0
4/9/18 2:00 25.7 26.1 25.7 89 22.9 0 -- 0 0 -- 25.7 25.6 30.142 0 0 0.819 0
4/9/18 2:30 25.8 25.8 25.6 89 23 0 -- 0 0 -- 25.8 25.7 30.144 0 0 0.817 0
4/9/18 3:00 25.8 25.8 25.7 89 23 0 -- 0 0 -- 25.8 25.7 30.143 0 0 0.817 0
4/9/18 3:30 25.4 25.8 25.4 89 22.6 0 -- 0 0 -- 25.4 25.3 30.149 0 0 0.825 0
4/9/18 4:00 25.9 26 25.2 89 23.1 0 -- 0 2 NW 25.9 25.8 30.156 0 0 0.815 0
4/9/18 4:30 25.6 26 25.6 89 22.8 0 -- 0 0 -- 25.6 25.5 30.163 0 0 0.821 0
4/9/18 5:00 24.9 25.7 24.9 88 21.8 0 -- 0 2 NW 24.9 24.8 30.169 0 0 0.835 0
4/9/18 5:30 23.9 24.9 23.8 87 20.6 1 WNW 0.5 3 WNW 23.9 23.7 30.175 0 0 0.856 0
4/9/18 6:00 23.7 23.9 23.6 86 20.1 0 -- 0 2 W 23.7 23.5 30.189 0 0 0.86 0
4/9/18 6:30 23.6 23.7 23.5 84 19.5 0 -- 0 2 NW 23.6 23.4 30.199 0 0 0.863 0
4/9/18 7:00 24.1 24.1 23.6 83 19.7 0 -- 0 2 NNW 24.1 23.9 30.208 0 0 0.852 0
4/9/18 7:30 24 24.1 23.9 76 17.5 0 -- 0 3 NW 24 23.7 30.219 0 0 0.854 0
4/9/18 8:00 24.3 24.3 24 76 17.8 1 NNW 0.5 3 NNW 24.3 24 30.223 0 0 0.848 0
4/9/18 8:30 24.5 24.6 24.3 74 17.4 1 WNW 0.5 3 W 24.5 24.2 30.233 0 0 0.844 0
4/9/18 9:00 24.6 24.7 24.3 75 17.8 2 WNW 1 5 WNW 22.8 24.3 30.243 0 0 0.842 0
4/9/18 9:30 24.9 25 24.6 75 18.1 2 WNW 1 5 WNW 23.2 24.6 30.25 0 0 0.835 0
4/9/18 10:00 25.6 25.6 24.9 75 18.8 2 WNW 1 5 NW 23.9 25.2 30.258 0 0 0.821 0
4/9/18 10:30 25.7 26 25.6 73 18.2 3 WNW 1.5 7 WNW 22.2 25.3 30.264 0 0 0.819 0
4/9/18 11:00 26.2 26.3 25.7 70 17.7 3 WNW 1.5 10 W 22.8 25.8 30.273 0 0 0.808 0
4/9/18 11:30 27 27.2 26.1 68 17.8 3 WNW 1.5 9 WNW 23.7 26.6 30.275 0 0 0.792 0
4/9/18 12:00 28.3 28.3 26.9 65 18 3 WNW 1.5 9 WNW 25.1 27.8 30.279 0 0 0.765 0
4/9/18 12:30 29.4 29.4 27.9 64 18.7 2 WNW 1 8 WNW 28.1 28.8 30.278 0 0 0.742 0
4/9/18 13:00 29.9 30.1 29.2 57 16.5 2 NW 1 7 WNW 28.7 29.2 30.278 0 0 0.731 0
4/9/18 13:30 30.8 30.9 29.6 58 17.7 2 N 1 5 NNW 29.7 30.1 30.275 0 0 0.713 0
4/9/18 14:00 30.3 31.3 29.6 50 13.9 2 N 1 5 NNE 29.1 29.5 30.277 0 0 0.723 0
4/9/18 14:30 30 30.9 29.9 51 14 2 NNE 1 5 NW 28.8 29.2 30.272 0 0 0.729 0
4/9/18 15:00 32.1 32.1 30.1 46 13.6 2 WNW 1 7 WNW 31.1 31.1 30.266 0 0 0.685 0
4/9/18 15:30 32.5 33.1 31.7 50 15.9 2 NNW 1 7 N 31.5 31.6 30.262 0 0 0.677 0
4/9/18 16:00 31.5 32.5 31.3 50 15 4 WNW 2 9 NW 27.5 30.6 30.259 0 0 0.698 0
4/9/18 16:30 31.3 31.8 31.2 49 14.3 4 WNW 2 9 WNW 27.3 30.4 30.254 0 0 0.702 0
4/9/18 17:00 31.3 31.4 31 53 16.1 3 WNW 1.5 8 WNW 28.5 30.5 30.254 0 0 0.702 0
4/9/18 17:30 30.9 31.3 30.8 53 15.8 2 NW 1 8 WNW 29.8 30.1 30.253 0 0 0.71 0
4/9/18 18:00 31 31.1 30.7 59 18.3 2 NNW 1 6 WNW 29.9 30.3 30.254 0 0 0.708 0
4/9/18 18:30 30.8 31.1 30.7 61 18.9 2 W 1 8 W 29.7 30.1 30.248 0 0 0.713 0
4/9/18 19:00 30.3 30.9 30.3 63 19.2 2 W 1 7 W 29.1 29.7 30.246 0 0 0.723 0
4/9/18 19:30 30.1 30.4 30.1 65 19.7 2 W 1 7 W 28.9 29.5 30.241 0 0 0.727 0
4/9/18 20:00 29.8 30.1 29.7 66 19.8 1 WSW 0.5 4 WSW 29.8 29.2 30.239 0 0 0.733 0
4/9/18 20:30 29.7 29.8 29.6 66 19.7 1 WSW 0.5 3 WSW 29.7 29.1 30.236 0 0 0.735 0
4/9/18 21:00 29 29.7 29 68 19.8 1 S 0.5 4 S 29 28.5 30.237 0 0 0.75 0
4/9/18 21:30 28.7 29.1 28.7 69 19.8 1 S 0.5 4 SSE 28.7 28.2 30.232 0 0 0.756 0
4/9/18 22:00 28.6 28.7 28.5 69 19.7 2 S 1 5 S 27.2 28.1 30.232 0 0 0.758 0
4/9/18 22:30 28.4 28.6 28.4 70 19.9 3 S 1.5 6 S 25.2 27.9 30.222 0 0 0.762 0
4/9/18 23:00 28.5 28.5 28.4 72 20.6 2 S 1 7 SSE 27.1 28 30.214 0 0 0.76 0
4/9/18 23:30 28.6 28.6 28.5 75 21.7 1 SSW 0.5 5 SSW 28.6 28.2 30.206 0 0 0.758 0
4/10/18 0:00 28.7 28.7 28.5 76 22.1 1 SSW 0.5 4 SW 28.7 28.3 30.202 0 0 0.756 0
4/10/18 0:30 28.8 28.8 28.6 77 22.5 1 SSW 0.5 5 SSW 28.8 28.4 30.198 0 0 0.754 0
4/10/18 1:00 28.9 29 28.7 77 22.6 1 SSW 0.5 3 SSW 28.9 28.5 30.189 0 0 0.752 0
4/10/18 1:30 29 29 28.8 77 22.7 1 S 0.5 4 SSW 29 28.6 30.18 0 0 0.75 0
4/10/18 2:00 29 29 28.8 77 22.7 1 SSW 0.5 5 S 29 28.6 30.173 0 0 0.75 0
4/10/18 2:30 29 29 28.9 77 22.7 1 SSW 0.5 4 SSW 29 28.6 30.164 0 0 0.75 0
4/10/18 3:00 29.2 29.2 29 78 23.2 1 SSW 0.5 5 SSE 29.2 28.9 30.152 0 0 0.746 0
4/10/18 3:30 29.3 29.3 29.1 78 23.3 2 SSW 1 7 S 28 29 30.145 0 0 0.744 0
4/10/18 4:00 29.2 29.3 29.2 79 23.5 1 SSW 0.5 5 SSW 29.2 28.9 30.139 0 0 0.746 0
4/10/18 4:30 29.4 29.4 29.2 79 23.7 1 SSW 0.5 7 SSW 29.4 29.1 30.128 0 0 0.742 0
4/10/18 5:00 29.4 29.4 29.3 79 23.7 1 SW 0.5 7 S 29.4 29.1 30.119 0 0 0.742 0
4/10/18 5:30 29.6 29.7 29.3 78 23.6 1 SW 0.5 6 SW 29.6 29.3 30.118 0 0 0.738 0
4/10/18 6:00 29.4 29.7 29.4 79 23.7 1 SSW 0.5 3 SW 29.4 29.1 30.104 0 0 0.742 0
4/10/18 6:30 29.3 29.5 29.3 79 23.6 1 SSW 0.5 4 SSW 29.3 29 30.091 0 0 0.744 0
4/10/18 7:00 29.4 29.5 29.3 80 24 1 SSW 0.5 4 SSW 29.4 29.1 30.095 0 0 0.742 0
4/10/18 7:30 29.7 29.7 29.4 80 24.3 1 SSW 0.5 4 SW 29.7 29.4 30.08 0 0 0.735 0
4/10/18 8:00 29.9 30 29.6 81 24.8 1 S 0.5 5 S 29.9 29.6 30.067 0 0 0.731 0
4/10/18 8:30 30.4 30.4 29.9 81 25.3 2 SSE 1 6 S 29.2 30.1 30.052 0 0 0.721 0
4/10/18 9:00 30.9 30.9 30.3 80 25.5 3 SSE 1.5 9 SSE 28.1 30.6 30.04 0 0 0.71 0
4/10/18 9:30 31.1 31.3 30.8 80 25.7 3 SSE 1.5 8 S 28.3 30.8 30.034 0 0 0.706 0
4/10/18 10:00 33.3 33.3 31.1 77 26.9 2 SSW 1 7 SSW 32.4 32.9 30.032 0 0 0.66 0
4/10/18 10:30 35.3 35.5 33.3 72 27.2 3 SSW 1.5 10 WNW 33 34.8 30.022 0 0 0.619 0
4/10/18 11:00 36.2 36.6 35.3 69 27 5 WSW 2.5 13 WSW 32 35.6 30.017 0 0 0.6 0
4/10/18 11:30 38 38 36 67 28 6 W 3 15 WSW 33.4 37.3 30.013 0 0 0.562 0
4/10/18 12:00 38.5 38.6 37.5 62 26.6 6 WNW 3 12 WNW 34 37.7 30.01 0 0 0.552 0
4/10/18 12:30 38.3 38.7 37.9 62 26.4 5 WNW 2.5 11 WNW 34.5 37.5 29.998 0 0 0.556 0
4/10/18 13:00 39.9 40.1 38.4 57 25.9 3 WNW 1.5 8 WNW 38.3 39 29.986 0 0 0.523 0
4/10/18 13:30 40.1 40.2 39 52 23.9 3 WNW 1.5 8 NW 38.5 39 29.978 0 0 0.519 0
4/10/18 14:00 40.6 40.8 39.6 56 26.1 3 WNW 1.5 9 W 39.1 39.6 29.97 0 0 0.508 0
4/10/18 14:30 40.7 41.6 40.4 58 27.1 3 NW 1.5 7 WNW 39.2 39.8 29.962 0 0 0.506 0
4/10/18 15:00 40.8 41.2 40.5 57 26.7 4 W 2 10 NW 38.3 39.9 29.949 0 0 0.504 0
4/10/18 15:30 41.7 41.8 40.5 56 27.1 3 W 1.5 9 WNW 40.3 40.7 29.936 0 0 0.485 0
4/10/18 16:00 41.9 42 41.1 59 28.6 4 W 2 10 W 39.5 41.1 29.925 0 0 0.481 0
4/10/18 16:30 41.5 42.1 41.4 60 28.6 5 WNW 2.5 12 WSW 38.2 40.7 29.923 0 0 0.49 0
4/10/18 17:00 41.5 42.1 41.2 60 28.6 4 W 2 9 NW 39 40.7 29.913 0 0 0.49 0
4/10/18 17:30 41.1 42.2 40.9 63 29.5 5 W 2.5 11 W 37.7 40.4 29.913 0 0 0.498 0
4/10/18 18:00 40.4 41.5 40.3 65 29.6 5 WNW 2.5 13 W 36.9 39.7 29.906 0 0 0.512 0
4/10/18 18:30 40.2 40.7 40.1 66 29.7 5 W 2.5 14 WNW 36.7 39.5 29.905 0 0 0.517 0
4/10/18 19:00 39.8 40.3 39.5 68 30.1 4 W 2 12 W 37.1 39.2 29.899 0 0 0.525 0
4/10/18 19:30 39.2 39.8 39.1 69 29.9 2 W 1 7 WSW 38.9 38.6 29.888 0 0 0.537 0
4/10/18 20:00 38.5 39.4 38.5 71 29.9 2 WSW 1 5 SW 38.1 37.9 29.881 0 0 0.552 0
4/10/18 20:30 37.5 38.5 37.5 74 30 3 WSW 1.5 8 W 35.5 37.1 29.881 0 0 0.573 0
4/10/18 21:00 36.6 37.6 36.5 75 29.4 2 W 1 7 W 36 36.2 29.882 0 0 0.592 0
4/10/18 21:30 35.9 36.6 35.9 74 28.4 3 W 1.5 9 WNW 33.7 35.5 29.884 0 0 0.606 0
4/10/18 22:00 35 36 35 74 27.5 5 WNW 2.5 12 WNW 30.6 34.6 29.885 0 0 0.625 0
4/10/18 22:30 33.6 35.1 33.6 74 26.2 4 WNW 2 9 NW 29.9 33.1 29.894 0 0 0.654 0
4/10/18 23:00 32.4 33.6 32.4 74 25 3 WNW 1.5 9 WNW 29.8 32 29.881 0 0 0.679 0
4/10/18 23:30 31.6 32.5 31.6 74 24.3 3 WNW 1.5 9 NNW 28.9 31.2 29.879 0 0 0.696 0
4/11/18 0:00 30.6 31.6 30.6 75 23.6 3 WNW 1.5 9 WNW 27.7 30.2 29.885 0 0 0.717 0
4/11/18 0:30 30 30.6 29.9 76 23.4 2 WNW 1 7 NW 28.8 29.6 29.881 0 0 0.729 0
4/11/18 1:00 29.6 30 29.5 75 22.6 1 WNW 0.5 4 W 29.6 29.2 29.883 0 0 0.738 0
4/11/18 1:30 28.6 29.6 28.6 76 22 1 W 0.5 3 W 28.6 28.2 29.883 0 0 0.758 0
4/11/18 2:00 28.5 28.7 28.4 77 22.2 0 -- 0 2 WNW 28.5 28.1 29.895 0 0 0.76 0
4/11/18 2:30 28.6 28.7 28.3 77 22.3 0 -- 0 2 W 28.6 28.2 29.897 0 0 0.758 0
4/11/18 3:00 29.4 29.4 28.5 77 23.1 0 -- 0 3 SW 29.4 29 29.903 0 0 0.742 0
4/11/18 3:30 29.9 30.2 29.4 77 23.6 0 -- 0 2 W 29.9 29.5 29.891 0 0 0.731 0
4/11/18 4:00 29.2 30.2 29.2 77 22.9 0 -- 0 2 W 29.2 28.8 29.883 0 0 0.746 0
4/11/18 4:30 28.3 29.3 27.9 79 22.6 1 W 0.5 3 W 28.3 28 29.89 0 0 0.765 0
4/11/18 5:00 28.4 28.5 28.2 79 22.7 1 WSW 0.5 3 SW 28.4 28.1 29.891 0 0 0.762 0
4/11/18 5:30 27.6 28.5 27.1 81 22.5 0 -- 0 2 SW 27.6 27.3 29.894 0 0 0.779 0
4/11/18 6:00 26.1 27.6 26.1 83 21.6 0 -- 0 2 WSW 26.1 25.9 29.885 0 0 0.81 0
4/11/18 6:30 25.1 26.1 25.1 83 20.7 0 -- 0 0 -- 25.1 24.9 29.893 0 0 0.831 0
4/11/18 7:00 24.8 25.1 24.6 85 20.9 0 -- 0 0 -- 24.8 24.6 29.892 0 0 0.838 0
4/11/18 7:30 25.6 25.7 24.8 85 21.7 0 -- 0 2 SSW 25.6 25.4 29.89 0 0 0.821 0
4/11/18 8:00 28.2 28.2 25.6 83 23.7 0 -- 0 0 -- 28.2 28 29.879 0 0 0.767 0
4/11/18 8:30 30.8 30.8 28.2 79 25.1 0 -- 0 2 SSW 30.8 30.5 29.88 0 0 0.713 0
4/11/18 9:00 32.8 32.9 30.8 75 25.7 1 ESE 0.5 3 SE 32.8 32.4 29.872 0 0 0.671 0
4/11/18 9:30 33.4 33.5 32.6 72 25.3 1 E 0.5 4 E 33.4 32.9 29.855 0 0 0.658 0
4/11/18 10:00 34.7 34.7 33.4 72 26.6 2 ENE 1 6 ENE 33.9 34.2 29.848 0 0 0.631 0
4/11/18 10:30 36.2 36.3 34.6 70 27.4 3 E 1.5 7 E 34.1 35.6 29.842 0 0 0.6 0
4/11/18 11:00 36.8 37.6 36.1 68 27.2 3 E 1.5 7 SSE 34.7 36.2 29.84 0 0 0.588 0
4/11/18 11:30 37.9 37.9 36.8 71 29.3 3 SE 1.5 8 ESE 36 37.3 29.837 0 0 0.565 0
4/11/18 12:00 39.2 39.4 37.6 66 28.8 3 SSE 1.5 7 S 37.5 38.5 29.833 0 0 0.537 0
4/11/18 12:30 39.5 39.5 39.1 65 28.7 3 SE 1.5 7 SE 37.8 38.8 29.819 0 0 0.531 0
4/11/18 13:00 40 40 39.4 62 28 2 SSE 1 8 SSE 39.8 39.2 29.803 0 0 0.521 0
4/11/18 13:30 40.8 40.9 40.1 63 29.2 3 SSE 1.5 7 SSE 39.3 40.1 29.79 0 0 0.504 0
4/11/18 14:00 40.4 40.8 40.2 65 29.6 3 SSE 1.5 6 SSE 38.8 39.7 29.79 0 0 0.512 0
4/11/18 14:30 40.1 40.5 39.9 65 29.3 2 S 1 6 SSE 39.9 39.4 29.787 0 0 0.519 0
4/11/18 15:00 40.4 40.5 40.1 65 29.6 2 SSE 1 6 SSE 40.2 39.7 29.778 0 0 0.512 0
4/11/18 15:30 40.3 40.5 40.1 67 30.2 1 NE 0.5 4 NE 40.3 39.6 29.769 0 0 0.515 0
4/11/18 16:00 39.7 40.5 39.7 67 29.6 3 NNE 1.5 7 NNE 38 39 29.758 0 0 0.527 0
4/11/18 16:30 39.6 39.7 39.5 70 30.6 2 N 1 5 NNE 39.3 39 29.754 0 0 0.529 0
4/11/18 17:00 40.5 40.6 39.7 65 29.7 1 N 0.5 4 N 40.5 39.8 29.752 0 0 0.51 0
4/11/18 18:00 39.6 40.2 39.5 69 30.3 0 -- 0 3 N 39.6 39 29.743 0 0 0.529 0
4/11/18 18:30 39.6 -- -- 69 30.3 1 NNW 0.5 5 NNE 39.6 39 29.735 0 0 0.529 0
4/11/18 19:00 39.6 -- -- 69 30.3 0 -- 0 3 N 39.6 39 29.733 0 0 0.529 0
4/11/18 19:30 39.6 -- -- 69 30.3 0 -- 0 2 NW 39.6 39 29.732 0 0 0.529 0
4/11/18 20:00 37.9 38.1 37.9 75 30.7 1 S 0.5 10 SSE 37.9 37.5 29.727 0 0 0.565 0
4/11/18 20:31 36 37.9 36 81 30.7 0 -- 0 0 -- 36 35.7 29.703 0 0 0.604 0
4/11/18 21:00 35.1 35.5 34.9 84 30.8 2 ESE 1 7 SE 34.4 34.9 29.708 0.03 41.14 0.623 0
4/11/18 21:30 34.5 35.1 34.4 85 30.5 1 ENE 0.5 4 NE 34.5 34.2 29.726 0 0 0.635 0
4/11/18 22:00 33.8 34.5 33.8 87 30.3 2 ENE 1 5 ENE 32.9 33.6 29.714 0.01 0 0.65 0
4/11/18 22:30 33.7 33.9 33.7 88 30.5 3 ESE 1.5 7 ESE 31.2 33.5 29.702 0 0 0.652 0
4/11/18 23:00 33.7 33.8 33.5 88 30.5 2 E 1 6 E 32.8 33.5 29.707 0 0 0.652 0
4/11/18 23:30 33.8 33.8 33.5 88 30.6 0 -- 0 4 SSE 33.8 33.6 29.712 0 0 0.65 0
4/12/18 0:00 33.8 34 33.7 88 30.6 0 -- 0 2 SE 33.8 33.6 29.69 0 0 0.65 0
4/12/18 0:30 33.6 33.8 33.5 88 30.4 0 -- 0 2 SE 33.6 33.4 29.673 0 0 0.654 0
4/12/18 1:00 33.3 33.6 33.2 89 30.4 0 -- 0 1 SE 33.3 33.1 29.67 0.01 0 0.66 0
4/12/18 1:30 33.6 33.6 33.3 89 30.7 0 -- 0 0 -- 33.6 33.4 29.661 0 0 0.654 0
4/12/18 2:00 33.2 33.6 33 90 30.6 0 -- 0 0 -- 33.2 33 29.646 0 0 0.662 0
4/12/18 2:30 33 33.3 33 90 30.4 0 -- 0 0 -- 33 32.8 29.648 0 0 0.667 0
4/12/18 3:00 32.8 33.1 32.8 90 30.2 0 -- 0 0 -- 32.8 32.6 29.623 0 0 0.671 0
4/12/18 3:30 32.8 32.9 32.7 90 30.2 0 -- 0 0 -- 32.8 32.6 29.63 0 0 0.671 0
4/12/18 4:00 32.7 32.8 32.7 90 30.1 0 -- 0 2 ENE 32.7 32.5 29.626 0 0 0.673 0
4/12/18 4:30 32.8 32.9 32.7 90 30.2 0 -- 0 1 ENE 32.8 32.6 29.624 0 0 0.671 0
4/12/18 5:00 33.1 33.2 32.8 90 30.5 0 -- 0 0 -- 33.1 32.9 29.635 0 0 0.665 0
4/12/18 5:30 32.8 33.1 32.8 90 30.2 0 -- 0 2 ENE 32.8 32.6 29.634 0 0 0.671 0
4/12/18 6:00 32.8 32.9 32.7 90 30.2 2 N 1 4 N 31.8 32.6 29.642 0 0 0.671 0
4/12/18 6:30 32.8 32.9 32.8 90 30.2 1 N 0.5 4 NNE 32.8 32.6 29.649 0 0 0.671 0
4/12/18 7:00 33 33.1 32.8 90 30.4 0 -- 0 0 -- 33 32.8 29.656 0 0 0.667 0
4/12/18 7:30 33.3 33.4 33 90 30.7 0 -- 0 1 N 33.3 33.1 29.679 0 0 0.66 0
4/12/18 8:00 33.5 33.5 33.2 90 30.9 0 -- 0 2 NNW 33.5 33.3 29.686 0 0 0.656 0
4/12/18 8:30 33.5 33.7 33.5 90 30.9 2 N 1 5 N 32.6 33.3 29.693 0 0 0.656 0
4/12/18 9:00 34 34 33.5 89 31.1 1 N 0.5 4 NNE 34 33.8 29.707 0 0 0.646 0
4/12/18 9:30 34.6 34.6 34 89 31.7 2 NNE 1 5 NNE 33.8 34.4 29.721 0 0 0.633 0
4/12/18 10:00 35 35 34.5 89 32.1 4 NNE 2 9 N 31.5 34.9 29.724 0 0 0.625 0
4/12/18 10:30 35.8 35.8 35 88 32.6 4 NNE 2 10 NE 32.5 35.7 29.729 0 0 0.608 0
4/12/18 11:00 36.8 36.8 35.7 87 33.3 4 NNE 2 9 N 33.6 36.6 29.729 0 0 0.588 0
4/12/18 11:30 37.7 37.7 36.7 85 33.6 5 NE 2.5 12 NE 33.8 37.5 29.733 0 0 0.569 0
4/12/18 12:00 38.8 38.8 37.6 84 34.4 5 NE 2.5 11 NE 35.1 38.6 29.747 0 0 0.546 0
4/12/18 12:30 40 40 38.8 82 34.9 5 NE 2.5 10 NE 36.5 39.7 29.742 0 0 0.521 0
4/12/18 13:00 41 41 39.7 79 35 5 NE 2.5 11 NNE 37.6 40.7 29.753 0 0 0.5 0
4/12/18 13:30 39.6 41.2 39.4 80 33.9 5 NNE 2.5 10 NNW 36 39.3 29.748 0 0 0.529 0
4/12/18 14:00 39.8 39.8 38.6 81 34.4 6 N 3 11 NNE 35.5 39.5 29.753 0 0 0.525 0
4/12/18 14:30 39.5 40.4 39.5 80 33.8 6 N 3 11 NNE 35.2 39.2 29.741 0 0 0.531 0
4/12/18 15:00 39.3 39.5 39 80 33.6 7 NNE 3.5 12 NNW 34.3 39 29.752 0 0 0.535 0
4/12/18 15:30 39.6 39.8 39.2 79 33.6 6 NNE 3 13 NE 35.3 39.3 29.741 0 0 0.529 0
4/12/18 16:00 40.2 40.3 39.5 77 33.6 7 NNE 3.5 15 NNE 35.3 39.8 29.736 0 0 0.517 0
4/12/18 16:30 38.9 40.2 38.9 78 32.6 6 NNE 3 14 NNE 34.4 38.6 29.726 0 0 0.544 0
4/12/18 17:00 38.7 39 38.4 78 32.4 6 NNE 3 15 NNE 34.2 38.4 29.735 0 0 0.548 0
4/12/18 17:30 38.3 38.8 38.2 79 32.4 6 NE 3 14 N 33.7 38 29.748 0 0 0.556 0
4/12/18 18:00 38 38.3 37.9 77 31.4 5 NNE 2.5 12 N 34.1 37.6 29.755 0 0 0.562 0
4/12/18 18:30 37.9 38 37.8 77 31.3 5 NE 2.5 12 NE 34 37.5 29.771 0 0 0.565 0
4/12/18 19:00 37.6 37.9 37.5 77 31 5 NE 2.5 11 NNE 33.7 37.2 29.781 0 0 0.571 0
4/12/18 19:30 36.9 37.6 36.9 79 31 3 NE 1.5 7 NNE 34.9 36.6 29.795 0 0 0.585 0
4/12/18 20:00 36.3 36.9 36.3 80 30.7 3 NE 1.5 6 NE 34.2 36 29.804 0 0 0.598 0
4/12/18 20:30 35.5 36.3 35.5 81 30.2 2 NE 1 5 NE 34.8 35.2 29.812 0 0 0.615 0
4/12/18 21:00 34.6 35.5 34.5 82 29.7 2 NE 1 5 NE 33.8 34.3 29.826 0 0 0.633 0
4/12/18 21:30 33.9 34.8 33.9 83 29.3 2 NNE 1 5 NNE 33.1 33.6 29.84 0 0 0.648 0
4/12/18 22:00 33.6 34.2 33.5 81 28.4 3 N 1.5 8 N 31.1 33.3 29.849 0 0 0.654 0
4/12/18 22:30 33.3 33.7 33.3 79 27.5 4 NNE 2 9 ENE 29.6 33 29.84 0 0 0.66 0
4/12/18 23:00 32.8 33.4 32.7 80 27.3 5 NNE 2.5 10 N 28 32.5 29.833 0 0 0.671 0
4/12/18 23:30 32.7 32.8 32.7 80 27.2 5 NNE 2.5 10 NNE 27.9 32.4 29.836 0 0 0.673 0
4/13/18 0:00 32.6 32.9 32.6 80 27.1 3 NNE 1.5 8 N 30 32.3 29.856 0 0 0.675 0
4/13/18 0:30 32.8 32.9 32.6 80 27.3 3 NNE 1.5 8 NNE 30.2 32.5 29.858 0 0 0.671 0
4/13/18 1:00 32.3 32.8 32.3 80 26.8 4 NNE 2 8 N 28.4 32 29.85 0 0 0.681 0
4/13/18 1:30 31.8 32.4 31.7 82 26.9 4 N 2 8 NNE 27.8 31.5 29.85 0 0 0.692 0
4/13/18 2:00 32.4 32.4 31.8 79 26.6 4 NNE 2 10 NNE 28.5 32.1 29.849 0 0 0.679 0
4/13/18 2:30 32.5 32.7 32.3 77 26.1 5 NNE 2.5 9 NNE 27.7 32.1 29.844 0 0 0.677 0
4/13/18 3:00 32.3 32.6 32.2 76 25.6 5 NNE 2.5 13 N 27.4 31.9 29.853 0 0 0.681 0
4/13/18 3:30 32.4 32.5 32 72 24.4 5 NNE 2.5 11 NNE 27.5 31.9 29.856 0 0 0.679 0
4/13/18 4:00 32.3 32.5 32.3 68 22.9 5 NNE 2.5 12 N 27.4 31.8 29.863 0 0 0.681 0
4/13/18 4:30 32.2 32.4 32.2 66 22.1 6 NNE 3 13 NNE 26.5 31.6 29.858 0 0 0.683 0
4/13/18 5:00 31.2 32.2 31.2 67 21.5 8 NNE 4 14 N 23.9 30.6 29.86 0 0 0.704 0
4/13/18 5:30 30.6 31.2 30.6 64 19.9 10 NNE 5 19 N 22 30 29.856 0 0 0.717 0
4/13/18 6:00 30.2 30.7 30.2 63 19.1 9 NNE 4.5 17 NNE 22 29.6 29.863 0 0 0.725 0
4/13/18 6:30 29.8 30.3 29.8 63 18.7 7 NNE 3.5 16 N 22.8 29.2 29.91 0 0 0.733 0
4/13/18 7:00 29.7 29.9 29.6 65 19.4 4 NE 2 10 ENE 25.4 29.1 29.934 0 0 0.735 0
4/13/18 7:30 29.9 29.9 29.5 64 19.2 4 NNE 2 11 NE 25.7 29.3 29.935 0 0 0.731 0
4/13/18 8:00 30.3 30.3 29.8 61 18.5 6 NNE 3 15 N 24.2 29.6 29.94 0 0 0.723 0
4/13/18 8:30 30.5 30.6 30.2 61 18.6 8 NNE 4 17 NNE 23 29.8 29.937 0 0 0.719 0
4/13/18 9:00 31.2 31.3 30.5 61 19.3 7 NNE 3.5 14 NNE 24.5 30.5 29.96 0 0 0.704 0
4/13/18 9:30 31.3 31.3 31 61 19.4 8 NNE 4 16 NE 24 30.6 29.98 0 0 0.702 0